createdAt,value
2018-11-04T00:02:10.292Z,3.30
2018-11-04T00:04:39.214Z,3.30
2018-11-04T00:07:08.034Z,3.30
2018-11-04T00:09:37.706Z,3.30
2018-11-04T00:12:07.161Z,3.30
2018-11-04T00:14:37.218Z,3.30
2018-11-04T00:17:06.318Z,3.30
2018-11-04T00:19:36.377Z,3.40
2018-11-04T00:22:05.771Z,3.40
2018-11-04T00:24:35.372Z,3.30
2018-11-04T00:27:05.039Z,3.30
2018-11-04T00:29:34.477Z,3.20
2018-11-04T00:32:03.497Z,3.20
2018-11-04T00:34:33.160Z,3.10
2018-11-04T00:37:02.190Z,3.10
2018-11-04T00:39:31.705Z,3.00
2018-11-04T00:42:01.776Z,3.00
2018-11-04T00:44:30.575Z,2.90
2018-11-04T00:46:59.375Z,2.90
2018-11-04T00:49:28.932Z,2.90
2018-11-04T00:51:58.714Z,2.80
2018-11-04T00:54:28.294Z,2.80
2018-11-04T00:56:57.497Z,2.80
2018-11-04T00:59:27.367Z,2.70
2018-11-04T01:01:56.432Z,2.80
2018-11-04T01:04:25.281Z,2.80
2018-11-04T01:06:54.492Z,2.90
2018-11-04T01:09:23.359Z,2.90
2018-11-04T01:11:52.496Z,2.90
2018-11-04T01:14:21.393Z,2.90
2018-11-04T01:16:50.893Z,2.80
2018-11-04T01:19:20.062Z,2.80
2018-11-04T01:21:49.126Z,2.70
2018-11-04T01:24:18.911Z,2.70
2018-11-04T01:26:47.701Z,2.60
2018-11-04T01:29:16.886Z,2.60
2018-11-04T01:31:45.713Z,2.60
2018-11-04T01:34:14.938Z,2.50
2018-11-04T01:36:44.632Z,2.50
2018-11-04T01:39:13.570Z,2.50
2018-11-04T01:41:42.425Z,2.50
2018-11-04T01:44:11.818Z,2.50
2018-11-04T01:46:41.899Z,2.40
2018-11-04T01:49:10.717Z,2.40
2018-11-04T01:51:40.616Z,2.40
2018-11-04T01:54:09.492Z,2.40
2018-11-04T01:56:38.681Z,2.40
2018-11-04T01:59:07.547Z,2.50
2018-11-04T02:01:36.376Z,2.50
2018-11-04T02:04:05.779Z,2.60
2018-11-04T02:06:35.284Z,2.70
2018-11-04T02:09:05.885Z,2.70
2018-11-04T02:11:35.253Z,2.80
2018-11-04T02:14:04.088Z,2.80
2018-11-04T02:16:33.305Z,2.80
2018-11-04T02:19:02.173Z,2.90
2018-11-04T02:21:32.114Z,2.90
2018-11-04T02:24:00.976Z,3.00
2018-11-04T02:26:36.483Z,3.10
2018-11-04T02:29:05.879Z,3.30
2018-11-04T02:31:34.733Z,3.40
2018-11-04T02:34:04.355Z,3.40
2018-11-04T02:36:33.209Z,3.50
2018-11-04T02:39:02.305Z,3.50
2018-11-04T02:41:32.042Z,3.70
2018-11-04T02:44:00.869Z,3.70
2018-11-04T02:46:29.746Z,3.90
2018-11-04T02:49:00.204Z,4.00
2018-11-04T02:51:29.616Z,4.10
2018-11-04T02:53:59.328Z,4.20
2018-11-04T02:56:28.156Z,4.20
2018-11-04T02:58:56.988Z,4.30
2018-11-04T03:01:26.907Z,4.30
2018-11-04T03:03:55.943Z,4.40
2018-11-04T03:06:26.348Z,4.40
2018-11-04T03:08:55.192Z,4.40
2018-11-04T03:11:24.486Z,4.40
2018-11-04T03:13:54.384Z,4.40
2018-11-04T03:16:23.215Z,4.40
2018-11-04T03:18:52.463Z,4.30
2018-11-04T03:21:22.824Z,4.30
2018-11-04T03:23:51.694Z,4.30
2018-11-04T03:26:20.581Z,4.30
2018-11-04T03:28:51.290Z,4.30
2018-11-04T03:31:20.615Z,4.30
2018-11-04T03:33:49.660Z,4.30
2018-11-04T03:36:19.339Z,4.20
2018-11-04T03:38:49.710Z,4.30
2018-11-04T03:41:18.547Z,4.20
2018-11-04T03:43:49.481Z,4.20
2018-11-04T03:46:19.476Z,4.20
2018-11-04T03:48:48.335Z,4.30
2018-11-04T03:51:17.433Z,4.40
2018-11-04T03:53:46.764Z,4.40
2018-11-04T03:56:15.840Z,4.40
2018-11-04T03:58:45.617Z,4.40
2018-11-04T04:01:15.268Z,4.40
2018-11-04T04:03:45.011Z,4.40
2018-11-04T04:06:13.844Z,4.40
2018-11-04T04:08:43.392Z,4.40
2018-11-04T04:11:12.933Z,4.40
2018-11-04T04:13:41.782Z,4.30
2018-11-04T04:16:10.920Z,4.20
2018-11-04T04:18:39.836Z,4.10
2018-11-04T04:21:10.372Z,4.10
2018-11-04T04:23:41.231Z,4.00
2018-11-04T04:26:11.196Z,4.00
2018-11-04T04:28:40.486Z,3.90
2018-11-04T04:31:09.394Z,3.80
2018-11-04T04:33:38.947Z,3.80
2018-11-04T04:36:08.048Z,3.70
2018-11-04T04:38:36.850Z,3.60
2018-11-04T04:41:06.450Z,3.50
2018-11-04T04:43:35.297Z,3.40
2018-11-04T04:46:04.172Z,3.30
2018-11-04T04:48:33.017Z,3.30
2018-11-04T04:51:02.218Z,3.20
2018-11-04T04:53:31.597Z,3.20
2018-11-04T04:56:01.070Z,3.10
2018-11-04T04:58:30.925Z,3.10
2018-11-04T05:00:59.756Z,3.00
2018-11-04T05:03:28.621Z,3.00
2018-11-04T05:05:57.497Z,2.90
2018-11-04T05:08:27.899Z,2.90
2018-11-04T05:10:57.442Z,2.90
2018-11-04T05:13:27.455Z,2.90
2018-11-04T05:15:56.720Z,2.90
2018-11-04T05:18:26.189Z,2.90
2018-11-04T05:20:55.060Z,2.90
2018-11-04T05:23:24.697Z,2.80
2018-11-04T05:25:54.139Z,2.80
2018-11-04T05:28:23.206Z,2.70
2018-11-04T05:30:52.043Z,2.70
2018-11-04T05:33:21.085Z,2.70
2018-11-04T05:35:50.283Z,2.60
2018-11-04T05:38:19.458Z,2.60
2018-11-04T05:40:48.271Z,2.60
2018-11-04T05:43:19.426Z,2.60
2018-11-04T05:45:48.239Z,2.70
2018-11-04T05:48:18.224Z,2.80
2018-11-04T05:50:47.345Z,2.90
2018-11-04T05:53:17.255Z,2.90
2018-11-04T05:55:47.401Z,2.90
2018-11-04T05:58:17.069Z,2.90
2018-11-04T06:00:46.083Z,2.90
2018-11-04T06:03:15.132Z,2.90
2018-11-04T06:05:43.941Z,2.90
2018-11-04T06:08:13.101Z,2.90
2018-11-04T06:10:41.885Z,3.00
2018-11-04T06:13:10.639Z,3.00
2018-11-04T06:15:39.414Z,2.90
2018-11-04T06:18:08.202Z,3.00
2018-11-04T06:20:37.312Z,3.00
2018-11-04T06:23:06.416Z,3.10
2018-11-04T06:25:35.988Z,3.10
2018-11-04T06:28:04.960Z,3.20
2018-11-04T06:30:34.128Z,3.20
2018-11-04T06:33:03.595Z,3.30
2018-11-04T06:35:32.899Z,3.30
2018-11-04T06:38:01.769Z,3.30
2018-11-04T06:40:30.681Z,3.30
2018-11-04T06:42:59.921Z,3.40
2018-11-04T06:45:29.026Z,3.40
2018-11-04T06:47:58.550Z,3.40
2018-11-04T06:50:27.784Z,3.40
2018-11-04T06:52:56.644Z,3.40
2018-11-04T06:55:26.660Z,3.40
2018-11-04T06:57:55.505Z,3.40
2018-11-04T07:00:24.373Z,3.50
2018-11-04T07:02:53.208Z,3.50
2018-11-04T07:05:22.181Z,3.60
2018-11-04T07:07:51.095Z,3.70
2018-11-04T07:10:20.600Z,3.70
2018-11-04T07:12:49.444Z,3.80
2018-11-04T07:15:18.270Z,3.80
2018-11-04T07:17:47.951Z,3.90
2018-11-04T07:20:17.063Z,3.90
2018-11-04T07:22:47.488Z,4.00
2018-11-04T07:25:16.364Z,4.10
2018-11-04T07:27:50.283Z,4.10
2018-11-04T07:30:20.002Z,4.20
2018-11-04T07:32:52.770Z,4.30
2018-11-04T07:35:30.320Z,4.30
2018-11-04T07:38:00.404Z,4.40
2018-11-04T07:40:29.495Z,4.50
2018-11-04T07:42:58.696Z,4.60
2018-11-04T07:45:27.996Z,4.70
2018-11-04T07:47:57.412Z,4.80
2018-11-04T07:50:26.314Z,4.90
2018-11-04T07:52:56.028Z,5.00
2018-11-04T07:55:25.245Z,5.00
2018-11-04T07:57:54.434Z,5.10
2018-11-04T08:00:25.041Z,5.20
2018-11-04T08:02:54.212Z,5.20
2018-11-04T08:05:23.658Z,5.40
2018-11-04T08:07:53.124Z,5.40
2018-11-04T08:10:21.973Z,5.40
2018-11-04T08:12:50.779Z,5.40
2018-11-04T08:15:23.513Z,5.50
2018-11-04T08:17:53.312Z,5.50
2018-11-04T08:20:22.134Z,5.50
2018-11-04T08:22:51.193Z,5.40
2018-11-04T08:25:20.385Z,5.40
2018-11-04T08:27:50.763Z,5.50
2018-11-04T08:30:19.562Z,5.40
2018-11-04T08:32:48.750Z,5.40
2018-11-04T08:35:18.614Z,5.40
2018-11-04T08:37:47.493Z,5.40
2018-11-04T08:40:17.386Z,5.40
2018-11-04T08:42:47.655Z,5.40
2018-11-04T08:45:17.516Z,5.40
2018-11-04T08:47:46.580Z,5.40
2018-11-04T08:50:16.166Z,5.40
2018-11-04T08:52:45.064Z,5.30
2018-11-04T08:55:14.382Z,5.40
2018-11-04T08:57:43.320Z,5.40
2018-11-04T09:00:13.796Z,5.40
2018-11-04T09:02:44.610Z,5.40
2018-11-04T09:05:13.716Z,5.40
2018-11-04T09:07:43.153Z,5.60
2018-11-04T09:10:14.464Z,5.70
2018-11-04T09:12:43.960Z,5.80
2018-11-04T09:15:13.272Z,5.80
2018-11-04T09:17:43.837Z,5.90
2018-11-04T09:20:14.396Z,5.90
2018-11-04T09:22:45.301Z,5.90
2018-11-04T09:25:14.358Z,5.90
2018-11-04T09:27:43.431Z,5.90
2018-11-04T09:30:14.393Z,6.00
2018-11-04T09:32:45.932Z,6.00
2018-11-04T09:35:15.110Z,6.00
2018-11-04T09:37:43.874Z,6.10
2018-11-04T09:40:13.383Z,6.20
2018-11-04T09:42:42.487Z,6.20
2018-11-04T09:45:11.633Z,6.30
2018-11-04T09:47:40.521Z,6.50
2018-11-04T09:50:10.787Z,6.50
2018-11-04T09:52:39.876Z,6.60
2018-11-04T09:55:10.193Z,6.70
2018-11-04T09:57:39.033Z,6.80
2018-11-04T10:00:10.310Z,7.00
2018-11-04T10:02:39.413Z,7.20
2018-11-04T10:05:09.112Z,7.30
2018-11-04T10:07:38.671Z,7.40
2018-11-04T10:10:10.112Z,7.50
2018-11-04T10:12:39.464Z,7.60
2018-11-04T10:15:08.805Z,7.70
2018-11-04T10:17:37.954Z,7.80
2018-11-04T10:20:08.213Z,7.90
2018-11-04T10:22:37.735Z,8.00
2018-11-04T10:25:07.670Z,8.10
2018-11-04T10:27:36.687Z,8.30
2018-11-04T10:30:07.793Z,8.30
2018-11-04T10:32:37.696Z,8.40
2018-11-04T10:35:07.176Z,8.50
2018-11-04T10:37:36.254Z,8.50
2018-11-04T10:40:06.402Z,8.60
2018-11-04T10:42:36.419Z,8.60
2018-11-04T10:45:07.122Z,8.70
2018-11-04T10:47:36.755Z,8.80
2018-11-04T10:50:07.804Z,8.80
2018-11-04T10:52:37.752Z,8.80
2018-11-04T10:55:07.093Z,8.90
2018-11-04T10:57:37.717Z,8.90
2018-11-04T11:00:13.059Z,9.00
2018-11-04T11:02:42.474Z,9.00
2018-11-04T11:05:11.314Z,9.10
2018-11-04T11:07:42.034Z,9.20
2018-11-04T11:10:11.662Z,9.20
2018-11-04T11:12:41.371Z,9.30
2018-11-04T11:15:11.267Z,9.40
2018-11-04T11:17:40.710Z,9.40
2018-11-04T11:20:10.646Z,9.50
2018-11-04T11:22:41.168Z,9.60
2018-11-04T11:25:10.958Z,9.60
2018-11-04T11:27:42.093Z,9.60
2018-11-04T11:30:11.028Z,9.70
2018-11-04T11:32:41.090Z,9.70
2018-11-04T11:35:10.005Z,9.80
2018-11-04T11:37:39.270Z,9.80
2018-11-04T11:40:08.839Z,9.90
2018-11-04T11:42:38.099Z,10.00
2018-11-04T11:45:08.146Z,10.00
2018-11-04T11:47:37.730Z,10.00
2018-11-04T11:50:07.554Z,10.10
2018-11-04T11:52:36.925Z,10.10
2018-11-04T11:55:06.294Z,10.00
2018-11-04T11:57:35.384Z,10.10
2018-11-04T12:00:07.327Z,10.20
2018-11-04T12:02:36.911Z,10.10
2018-11-04T12:05:07.452Z,10.20
2018-11-04T12:07:36.480Z,10.30
2018-11-04T12:10:08.015Z,10.30
2018-11-04T12:12:37.796Z,10.40
2018-11-04T12:15:12.332Z,10.50
2018-11-04T12:17:43.482Z,10.50
2018-11-04T12:20:17.925Z,10.60
2018-11-04T12:22:47.116Z,10.60
2018-11-04T12:25:16.421Z,10.70
2018-11-04T12:27:45.358Z,10.70
2018-11-04T12:30:16.985Z,10.70
2018-11-04T12:32:45.857Z,10.80
2018-11-04T12:35:15.297Z,10.80
2018-11-04T12:37:45.661Z,10.80
2018-11-04T12:40:16.199Z,10.80
2018-11-04T12:42:45.764Z,10.80
2018-11-04T12:45:14.848Z,10.80
2018-11-04T12:47:43.733Z,10.80
2018-11-04T12:50:13.306Z,10.70
2018-11-04T12:52:42.540Z,10.80
2018-11-04T12:55:11.484Z,10.80
2018-11-04T12:57:40.391Z,10.90
2018-11-04T13:00:12.751Z,10.90
2018-11-04T13:02:42.167Z,10.90
2018-11-04T13:05:11.588Z,10.90
2018-11-04T13:07:41.181Z,10.90
2018-11-04T13:10:11.761Z,10.90
2018-11-04T13:12:45.970Z,10.90
2018-11-04T13:15:16.028Z,11.00
2018-11-04T13:17:45.534Z,11.00
2018-11-04T13:20:15.487Z,11.00
2018-11-04T13:22:45.196Z,11.10
2018-11-04T13:25:14.060Z,11.10
2018-11-04T13:27:43.456Z,11.20
2018-11-04T13:30:14.189Z,11.30
2018-11-04T13:32:44.469Z,11.30
2018-11-04T13:35:17.354Z,11.30
2018-11-04T13:37:46.214Z,11.40
2018-11-04T13:40:17.357Z,11.40
2018-11-04T13:42:48.067Z,11.40
2018-11-04T13:45:23.989Z,11.30
2018-11-04T13:47:56.217Z,11.40
2018-11-04T13:50:28.006Z,11.40
2018-11-04T13:52:56.878Z,11.40
2018-11-04T13:55:25.946Z,11.50
2018-11-04T13:58:01.352Z,11.50
2018-11-04T14:00:31.102Z,11.50
2018-11-04T14:03:00.116Z,11.60
2018-11-04T14:05:29.922Z,11.60
2018-11-04T14:07:59.023Z,11.60
2018-11-04T14:10:30.120Z,11.50
2018-11-04T14:12:59.834Z,11.50
2018-11-04T14:15:33.048Z,11.60
2018-11-04T14:18:01.936Z,11.50
2018-11-04T14:20:31.472Z,11.60
2018-11-04T14:23:00.253Z,11.60
2018-11-04T14:25:31.794Z,11.60
2018-11-04T14:28:05.197Z,11.60
2018-11-04T14:30:34.568Z,11.60
2018-11-04T14:33:06.455Z,11.60
2018-11-04T14:35:36.044Z,11.50
2018-11-04T14:38:04.896Z,11.40
2018-11-04T14:40:34.100Z,11.30
2018-11-04T14:43:06.917Z,11.10
2018-11-04T14:45:37.333Z,11.00
2018-11-04T14:48:10.043Z,10.90
2018-11-04T14:50:41.096Z,10.80
2018-11-04T14:53:10.040Z,10.60
2018-11-04T14:55:40.595Z,10.60
2018-11-04T14:58:09.459Z,10.40
2018-11-04T15:00:38.366Z,10.30
2018-11-04T15:03:08.121Z,10.20
2018-11-04T15:05:38.010Z,10.20
2018-11-04T15:08:07.945Z,10.10
2018-11-04T15:10:37.252Z,10.00
2018-11-04T15:13:06.327Z,9.90
2018-11-04T15:15:35.928Z,9.80
2018-11-04T15:18:04.775Z,9.70
2018-11-04T15:20:33.896Z,9.60
2018-11-04T15:23:03.604Z,9.50
2018-11-04T15:25:32.664Z,9.40
2018-11-04T15:28:01.599Z,9.20
2018-11-04T15:30:30.445Z,9.10
2018-11-04T15:33:00.606Z,9.00
2018-11-04T15:35:29.875Z,8.80
2018-11-04T15:37:59.046Z,8.70
2018-11-04T15:40:28.262Z,8.60
2018-11-04T15:42:57.139Z,8.50
2018-11-04T15:45:26.409Z,8.30
2018-11-04T15:47:55.276Z,8.20
2018-11-04T15:50:24.098Z,8.10
2018-11-04T15:52:53.140Z,8.00
2018-11-04T15:55:22.030Z,7.90
2018-11-04T15:57:52.837Z,7.80
2018-11-04T16:00:22.592Z,7.70
2018-11-04T16:02:52.360Z,7.60
2018-11-04T16:05:21.646Z,7.50
2018-11-04T16:07:50.319Z,7.40
2018-11-04T16:10:19.659Z,7.30
2018-11-04T16:12:48.949Z,7.30
2018-11-04T16:15:18.047Z,7.20
2018-11-04T16:17:46.874Z,7.10
2018-11-04T16:20:16.466Z,7.10
2018-11-04T16:22:47.562Z,7.00
2018-11-04T16:25:16.483Z,7.00
2018-11-04T16:27:45.999Z,6.90
2018-11-04T16:30:15.607Z,6.90
2018-11-04T16:32:44.717Z,6.90
2018-11-04T16:35:15.464Z,6.80
2018-11-04T16:37:45.005Z,6.80
2018-11-04T16:40:13.755Z,6.70
2018-11-04T16:42:43.137Z,6.70
2018-11-04T16:45:14.955Z,6.70
2018-11-04T16:47:44.616Z,6.70
2018-11-04T16:50:14.151Z,6.70
2018-11-04T16:52:43.824Z,6.70
2018-11-04T16:55:13.793Z,6.70
2018-11-04T16:57:43.830Z,6.70
2018-11-04T17:00:12.866Z,6.70
2018-11-04T17:02:41.761Z,6.70
2018-11-04T17:05:11.621Z,6.70
2018-11-04T17:07:40.751Z,6.60
2018-11-04T17:10:10.470Z,6.50
2018-11-04T17:12:39.496Z,6.50
2018-11-04T17:15:09.900Z,6.40
2018-11-04T17:17:39.020Z,6.40
2018-11-04T17:20:10.781Z,6.30
2018-11-04T17:22:39.813Z,6.30
2018-11-04T17:25:08.922Z,6.30
2018-11-04T17:27:37.846Z,6.30
2018-11-04T17:30:10.312Z,6.30
2018-11-04T17:32:39.148Z,6.40
2018-11-04T17:35:09.097Z,6.40
2018-11-04T17:37:38.759Z,6.50
2018-11-04T17:40:09.953Z,6.40
2018-11-04T17:42:39.507Z,6.40
2018-11-04T17:45:11.090Z,6.40
2018-11-04T17:47:39.933Z,6.40
2018-11-04T17:50:11.765Z,6.50
2018-11-04T17:52:41.721Z,6.60
2018-11-04T17:55:10.978Z,6.70
2018-11-04T17:57:41.083Z,6.70
2018-11-04T18:00:10.734Z,6.80
2018-11-04T18:02:40.234Z,6.80
2018-11-04T18:05:09.741Z,6.80
2018-11-04T18:07:38.740Z,6.80
2018-11-04T18:10:09.082Z,6.80
2018-11-04T18:12:38.185Z,6.80
2018-11-04T18:15:07.558Z,6.90
2018-11-04T18:17:37.263Z,7.00
2018-11-04T18:20:08.111Z,7.00
2018-11-04T18:22:37.058Z,7.00
2018-11-04T18:25:08.508Z,7.10
2018-11-04T18:27:38.250Z,7.10
2018-11-04T18:30:16.577Z,7.10
2018-11-04T18:32:49.350Z,7.00
2018-11-04T18:35:20.006Z,7.10
2018-11-04T18:37:50.309Z,7.10
2018-11-04T18:40:20.123Z,7.20
2018-11-04T18:42:49.953Z,7.30
2018-11-04T18:45:19.093Z,7.30
2018-11-04T18:47:48.993Z,7.20
2018-11-04T18:50:19.784Z,7.30
2018-11-04T18:52:51.226Z,7.30
2018-11-04T18:55:20.474Z,7.30
2018-11-04T18:57:51.050Z,7.30
2018-11-04T19:00:21.273Z,7.20
2018-11-04T19:02:50.253Z,7.10
2018-11-04T19:05:19.730Z,7.00
2018-11-04T19:07:49.137Z,6.90
2018-11-04T19:10:19.178Z,6.90
2018-11-04T19:12:48.254Z,6.80
2018-11-04T19:15:21.109Z,6.80
2018-11-04T19:17:53.211Z,6.70
2018-11-04T19:20:26.900Z,6.70
2018-11-04T19:22:56.198Z,6.60
2018-11-04T19:25:26.347Z,6.50
2018-11-04T19:27:56.509Z,6.50
2018-11-04T19:30:29.858Z,6.50
2018-11-04T19:33:05.439Z,6.50
2018-11-04T19:35:36.781Z,6.50
2018-11-04T19:38:06.746Z,6.50
2018-11-04T19:40:36.336Z,6.50
2018-11-04T19:43:05.386Z,6.40
2018-11-04T19:45:35.305Z,6.40
2018-11-04T19:48:09.300Z,6.40
2018-11-04T19:50:39.080Z,6.40
2018-11-04T19:53:08.263Z,6.30
2018-11-04T19:55:40.348Z,6.30
2018-11-04T19:58:15.317Z,6.30
2018-11-04T20:00:51.917Z,6.20
2018-11-04T20:03:22.680Z,6.20
2018-11-04T20:05:54.016Z,6.20
2018-11-04T20:08:23.225Z,6.20
2018-11-04T20:10:53.096Z,6.20
2018-11-04T20:13:27.413Z,6.20
2018-11-04T20:15:57.152Z,6.20
2018-11-04T20:18:31.409Z,6.20
2018-11-04T20:21:00.389Z,6.20
2018-11-04T20:23:29.776Z,6.20
2018-11-04T20:25:59.972Z,6.20
2018-11-04T20:28:29.190Z,6.20
2018-11-04T20:30:59.644Z,6.30
2018-11-04T20:33:29.874Z,6.30
2018-11-04T20:35:58.798Z,6.30
2018-11-04T20:38:33.515Z,6.30
2018-11-04T20:41:09.335Z,6.30
2018-11-04T20:43:38.141Z,6.30
2018-11-04T20:46:07.846Z,6.40
2018-11-04T20:48:42.085Z,6.30
2018-11-04T20:51:10.877Z,6.30
2018-11-04T20:53:39.729Z,6.30
2018-11-04T20:56:14.058Z,6.30
2018-11-04T20:58:43.900Z,6.30
2018-11-04T21:01:12.946Z,6.30
2018-11-04T21:03:42.373Z,6.20
2018-11-04T21:06:11.836Z,6.20
2018-11-04T21:08:40.737Z,6.20
2018-11-04T21:11:09.495Z,6.10
2018-11-04T21:13:38.268Z,6.10
2018-11-04T21:16:07.886Z,6.10
2018-11-04T21:18:37.179Z,6.00
2018-11-04T21:21:06.701Z,6.10
2018-11-04T21:23:36.786Z,6.10
2018-11-04T21:26:05.757Z,6.00
2018-11-04T21:28:35.747Z,6.00
2018-11-04T21:31:04.490Z,6.00
2018-11-04T21:33:33.288Z,6.00
2018-11-04T21:36:02.238Z,6.00
2018-11-04T21:38:31.819Z,5.90
2018-11-04T21:41:00.882Z,5.90
2018-11-04T21:43:30.775Z,5.80
2018-11-04T21:45:59.287Z,5.80
2018-11-04T21:48:28.114Z,5.80
2018-11-04T21:50:57.163Z,5.80
2018-11-04T21:53:26.798Z,5.80
2018-11-04T21:55:55.679Z,5.80
2018-11-04T21:58:24.688Z,5.80
2018-11-04T22:00:53.528Z,5.80
2018-11-04T22:03:23.129Z,5.80
2018-11-04T22:05:52.309Z,5.70
2018-11-04T22:08:21.452Z,5.70
2018-11-04T22:10:50.341Z,5.70
2018-11-04T22:13:20.534Z,5.70
2018-11-04T22:15:50.076Z,5.80
2018-11-04T22:18:19.161Z,5.80
2018-11-04T22:20:48.608Z,5.70
2018-11-04T22:23:18.409Z,5.70
2018-11-04T22:25:48.348Z,5.80
2018-11-04T22:28:18.519Z,5.80
2018-11-04T22:30:47.340Z,5.80
2018-11-04T22:33:16.165Z,5.80
2018-11-04T22:35:46.650Z,5.90
2018-11-04T22:38:15.497Z,5.90
2018-11-04T22:40:44.333Z,5.90
2018-11-04T22:43:13.215Z,5.90
2018-11-04T22:45:42.060Z,5.90
2018-11-04T22:48:10.894Z,5.90
2018-11-04T22:50:40.680Z,5.80
2018-11-04T22:53:09.512Z,5.80
2018-11-04T22:55:38.350Z,5.80
2018-11-04T22:58:08.828Z,5.80
2018-11-04T23:00:43.830Z,5.80
2018-11-04T23:03:13.583Z,5.90
2018-11-04T23:05:43.677Z,5.90
2018-11-04T23:08:13.610Z,5.90
2018-11-04T23:10:42.468Z,5.90
2018-11-04T23:13:11.646Z,5.80
2018-11-04T23:15:40.691Z,5.90
2018-11-04T23:18:09.529Z,5.80
2018-11-04T23:20:39.249Z,5.80
2018-11-04T23:23:08.532Z,5.80
2018-11-04T23:25:37.668Z,5.80
2018-11-04T23:28:06.878Z,5.90
2018-11-04T23:30:36.058Z,5.80
2018-11-04T23:33:04.924Z,5.90
2018-11-04T23:35:34.564Z,5.90
2018-11-04T23:38:03.986Z,5.90
2018-11-04T23:40:33.445Z,5.90
2018-11-04T23:43:02.366Z,5.90
2018-11-04T23:45:32.492Z,5.90
2018-11-04T23:48:01.333Z,5.90
2018-11-04T23:50:30.482Z,5.90
2018-11-04T23:52:59.332Z,5.90
2018-11-04T23:55:28.378Z,5.80
2018-11-04T23:57:59.605Z,5.80
